Philadelphia International Airport
KPHL : now visible

Airfield :











YOU CAN JOIN US ON...

 
LOGIN :

Register | Disclaimer

   EN    FR    IT 

 









Legend :    VFR   Marginal VFR   IFR   Intensive IFR   Very Intensive IFR
Visi :
Ceiling :
>= 8 km
>= 3000ft
5 to 8 km
1000 to 3000 ft
1500m to 5 km
500 to 1000 ft
800 to 1500m
200 to 500 ft
< 800m
< 200 ft
Symbols :   Thunderstorms  Fog  Heavy snow  Heavy precipitations  Wind > 20 kt







- Airport Elevation : 36 ft
- IATA code : PHL


KPHL - Philadelphia International

CURRENT METAR :
  • 162154Z 30004KT 10SM FEW040 BKN065 OVC120 28/13 A2998 RMK AO2 SLP150 T02780133

EXPIRED METARs :
  • 162054Z 15004KT 10SM FEW040 BKN070 BKN100 OVC260 28/14 A2997 RMK AO2 SLP149 T02780139 56014
  • 161954Z 19005KT 10SM FEW040 BKN070 BKN120 OVC260 28/12 A2998 RMK AO2 SLP152 T02780122

TAF KPHL
Valid from the 16 at 22:00 until the 18 at 00:00 UTC


162213Z 1622/1724 VRB04KT P6SM FEW040 BKN060
FM170000 06007KT P6SM OVC050
FM170900 04009KT P6SM FEW100
No reported NOTAMs for that airfield.



MET'MAP, your aeronautical weather chart ! - Copyright ORBIFLY December 2007 - Disclaimer

ORBIFLY MET'MAP TEAM :

Programming & Development : Alexandra Zaïnal
Concept & Development : Baudouin d'Aumeries
Co-Development & Prog : Marc-Olivier Méhu
Technical & hardware support : Manuel Goepfert

Contact : metmap@orbifly.com




SOURCES & CREDITS :

   NOAA       Earth
Advisory